KGCC/GCC METAR and TAF weather

Enter ICAO airport designator
Station Type Date Time Source
KGCC METAR 2020/08/06 00:53 UTC NOAA

KGCC 060053Z AUTO 06010KT 10SM CLR 28/07 A2998 RMK AO2 LTG DSNT SW SLP107 T02780072


Station Type Date Time Source
KGCC Decoded METAR 2020/08/06 00:53 UTC NOAA

GILLETTE-CAMPBELL CTY AIRPORT , WY, United States (KGCC) 44-20N 105-33W 1320M
Aug 05, 2020 - 08:53 PM EDT / 2020.08.06 0053 UTC
Wind: from the ENE (060 degrees) at 12 MPH (10 KT):0
Visibility: 10 mile(s):0
Sky conditions: clear
Weather: Lightning observed
Temperature: 82.0 F (27.8 C)
Dew Point: 45.0 F (7.2 C)
Relative Humidity: 27%
Pressure (altimeter): 29.98 in. Hg (1015 hPa)
ob: KGCC 060053Z AUTO 06010KT 10SM CLR 28/07 A2998 RMK AO2 LTG DSNT SW SLP107 T02780072
cycle: 1

Station Type Date Time Source
KGCC TAF 2020/08/05 18:22 UTC NOAA

TAF KGCC 051720Z 0518/0618 09009KT P6SM FEW250
FM061600 16012G22KT P6SM SCT200

Example: see airport list